Main page
METAR-TAF:

METAR-TAF

Airports :

Istanbul Sabiha Gökçen, Turkey

Sabiha Gökçen International Airport

latitude: 40-53-55N, longitude: 029-18-33E, elevation: 95 m

Current weather observation

The report was made 24 minutes ago, at 20:20 UTC
Wind 1 kt from variable directions
Temperature 24°C
Humidity 47%
Pressure 1013 hPa
Visibility 10 km or more
no clouds below 1500 m and no cumulonimbus

METAR: LTFJ 232020Z VRB01KT CAVOK 24/12 Q1013 NOSIG RMK RWY24 00000KT

Time: 23:44 (20:44 UTC)

Forecast

The report was made 4 hours and 4 minutes ago, at 16:40 UTC
Forecast valid from 23 at 18 UTC to 24 at 18 UTC
Wind 7 kt from the South/Southwest
Visibility 10 km or more
no clouds below 1500 m and no cumulonimbus
Temporary
from 24 at 11 UTC to 24 at 13 UTC
Few clouds at a height of 4000 ft

TAF: LTFJ 231640Z 2318/2418 21007KT CAVOK TEMPO 2411/2413 FEW040

Weather observations and forecasts of more than 4000 airports (METAR and TAF reports).

The available stations are represented by yellow and red dots on the map.

Hover mouse over dot to see the name of the station.

Then click to see weather observations and forecasts.

To change the map : click on the green buttons with a black cross to zoom in, on the green button with a dash to zoom out, or on the green arrows for adjacent maps.


METAR-TAF: